createdAt,value
2023-10-29T00:00:44.744Z,0.00
2023-10-29T00:02:44.659Z,0.00
2023-10-29T00:03:44.636Z,0.00
2023-10-29T00:04:44.415Z,0.00
2023-10-29T00:05:44.407Z,0.00
2023-10-29T00:06:44.249Z,0.00
2023-10-29T00:07:44.247Z,0.00
2023-10-29T00:08:44.111Z,0.00
2023-10-29T00:09:44.010Z,0.00
2023-10-29T00:10:43.929Z,0.00
2023-10-29T00:11:43.871Z,0.00
2023-10-29T00:12:43.767Z,0.00
2023-10-29T00:13:43.680Z,0.00
2023-10-29T00:14:43.619Z,0.00
2023-10-29T00:15:43.566Z,0.00
2023-10-29T00:16:43.440Z,0.00
2023-10-29T00:17:43.455Z,0.00
2023-10-29T00:18:43.279Z,0.00
2023-10-29T00:19:43.194Z,0.00
2023-10-29T00:20:43.140Z,0.00
2023-10-29T00:21:43.034Z,0.00
2023-10-29T00:22:42.953Z,0.00
2023-10-29T00:23:43.046Z,0.00
2023-10-29T00:24:42.790Z,0.00
2023-10-29T00:25:42.708Z,0.00
2023-10-29T00:26:42.639Z,0.00
2023-10-29T00:27:42.543Z,0.00
2023-10-29T00:28:42.470Z,0.00
2023-10-29T00:29:42.446Z,0.00
2023-10-29T00:30:42.300Z,0.00
2023-10-29T00:31:42.235Z,0.00
2023-10-29T00:32:42.216Z,0.00
2023-10-29T00:33:42.058Z,0.00
2023-10-29T00:34:41.976Z,0.00
2023-10-29T00:35:41.938Z,0.00
2023-10-29T00:36:41.814Z,0.00
2023-10-29T00:37:41.734Z,0.00
2023-10-29T00:38:41.681Z,0.00
2023-10-29T00:39:41.586Z,0.00
2023-10-29T00:40:41.491Z,0.00
2023-10-29T00:41:41.462Z,0.00
2023-10-29T00:42:41.333Z,0.00
2023-10-29T00:43:41.250Z,0.00
2023-10-29T00:44:41.222Z,0.00
2023-10-29T00:45:41.160Z,0.00
2023-10-29T00:46:41.011Z,0.00
2023-10-29T00:47:40.999Z,0.00
2023-10-29T00:48:40.851Z,0.00
2023-10-29T00:49:40.759Z,0.00
2023-10-29T00:50:40.914Z,0.00
2023-10-29T00:51:40.598Z,0.00
2023-10-29T00:52:40.515Z,0.00
2023-10-29T00:53:40.473Z,0.00
2023-10-29T00:54:40.350Z,0.00
2023-10-29T00:55:40.277Z,0.00
2023-10-29T00:56:40.296Z,0.00
2023-10-29T00:57:40.115Z,0.00
2023-10-29T00:58:40.032Z,0.00
2023-10-29T00:59:39.979Z,0.00
2023-10-29T01:00:39.870Z,0.00
2023-10-29T01:01:39.790Z,0.00
2023-10-29T01:02:39.788Z,0.00
2023-10-29T01:03:39.747Z,0.00
2023-10-29T01:04:39.543Z,0.00
2023-10-29T01:05:39.531Z,0.00
2023-10-29T01:06:39.383Z,0.00
2023-10-29T01:07:39.301Z,0.00
2023-10-29T01:08:39.281Z,0.00
2023-10-29T01:09:39.139Z,0.00
2023-10-29T01:10:39.056Z,0.00
2023-10-29T01:11:39.027Z,0.00
2023-10-29T01:12:38.904Z,0.00
2023-10-29T01:13:38.815Z,0.00
2023-10-29T01:14:38.765Z,0.00
2023-10-29T01:15:38.664Z,0.00
2023-10-29T01:16:38.573Z,0.00
2023-10-29T01:17:39.388Z,0.00
2023-10-29T01:18:38.415Z,0.00
2023-10-29T01:19:38.333Z,0.00
2023-10-29T01:20:38.298Z,0.00
2023-10-29T01:21:38.168Z,0.00
2023-10-29T01:22:38.085Z,0.00
2023-10-29T01:23:38.073Z,0.00
2023-10-29T01:24:37.926Z,0.00
2023-10-29T01:25:37.841Z,0.00
2023-10-29T01:26:37.867Z,0.00
2023-10-29T01:27:37.681Z,0.00
2023-10-29T01:28:37.616Z,0.00
2023-10-29T01:29:37.590Z,0.00
2023-10-29T01:30:37.434Z,0.00
2023-10-29T01:31:37.376Z,0.00
2023-10-29T01:32:37.334Z,0.00
2023-10-29T01:33:37.194Z,0.00
2023-10-29T01:34:37.115Z,0.00
2023-10-29T01:35:37.073Z,0.00
2023-10-29T01:36:36.956Z,0.00
2023-10-29T01:37:36.871Z,0.00
2023-10-29T01:38:36.855Z,0.00
2023-10-29T01:39:36.705Z,0.00
2023-10-29T01:40:36.629Z,0.00
2023-10-29T01:41:36.569Z,0.00
2023-10-29T01:42:36.476Z,0.00
2023-10-29T01:43:36.389Z,0.00
2023-10-29T01:44:36.322Z,0.00
2023-10-29T01:45:36.269Z,0.00
2023-10-29T01:46:36.145Z,0.00
2023-10-29T01:47:36.110Z,0.00
2023-10-29T01:48:36.029Z,0.00
2023-10-29T01:49:35.895Z,0.00
2023-10-29T01:50:35.867Z,0.00
2023-10-29T01:51:35.733Z,0.00
2023-10-29T01:52:35.652Z,0.00
2023-10-29T01:53:35.582Z,0.00
2023-10-29T01:54:35.494Z,0.00
2023-10-29T01:55:35.411Z,0.00
2023-10-29T01:56:35.363Z,0.00
2023-10-29T01:57:35.247Z,0.00
2023-10-29T01:58:35.168Z,0.00
2023-10-29T01:59:35.113Z,0.00
2023-10-29T02:00:35.019Z,0.00
2023-10-29T02:01:34.942Z,0.00
2023-10-29T02:02:34.926Z,0.00
2023-10-29T02:03:34.893Z,0.00
2023-10-29T02:04:34.682Z,0.00
2023-10-29T02:05:34.610Z,0.00
2023-10-29T02:06:34.519Z,0.00
2023-10-29T02:07:34.437Z,0.00
2023-10-29T02:08:34.413Z,0.00
2023-10-29T02:09:34.275Z,0.00
2023-10-29T02:10:34.201Z,0.00
2023-10-29T02:11:34.142Z,0.00
2023-10-29T02:12:34.036Z,0.00
2023-10-29T02:13:33.952Z,0.00
2023-10-29T02:14:34.075Z,0.00
2023-10-29T02:15:33.793Z,0.00
2023-10-29T02:16:33.709Z,0.00
2023-10-29T02:17:33.658Z,0.00
2023-10-29T02:18:33.549Z,0.00
2023-10-29T02:19:33.464Z,0.00
2023-10-29T02:20:33.461Z,0.00
2023-10-29T02:21:33.311Z,0.00
2023-10-29T02:22:33.226Z,0.00
2023-10-29T02:23:33.197Z,0.00
2023-10-29T02:24:33.061Z,0.00
2023-10-29T02:25:32.979Z,0.00
2023-10-29T02:26:32.909Z,0.00
2023-10-29T02:27:32.815Z,0.00
2023-10-29T02:28:32.753Z,0.00
2023-10-29T02:29:32.676Z,0.00
2023-10-29T02:30:32.580Z,0.00
2023-10-29T02:31:32.566Z,0.00
2023-10-29T02:32:32.502Z,0.00
2023-10-29T02:33:32.399Z,0.00
2023-10-29T02:34:32.252Z,0.00
2023-10-29T02:35:32.215Z,0.00
2023-10-29T02:36:32.089Z,0.00
2023-10-29T02:37:32.006Z,0.00
2023-10-29T02:38:31.939Z,0.00
2023-10-29T02:39:31.862Z,0.00
2023-10-29T02:40:31.767Z,0.00
2023-10-29T02:41:31.705Z,0.00
2023-10-29T02:42:31.605Z,0.00
2023-10-29T02:43:31.517Z,0.00
2023-10-29T02:44:31.464Z,0.00
2023-10-29T02:45:31.362Z,0.00
2023-10-29T02:46:31.276Z,0.00
2023-10-29T02:47:31.255Z,0.00
2023-10-29T02:48:31.215Z,0.00
2023-10-29T02:49:31.034Z,0.00
2023-10-29T02:50:31.057Z,0.00
2023-10-29T02:51:30.871Z,0.00
2023-10-29T02:52:30.790Z,0.00
2023-10-29T02:53:30.735Z,0.00
2023-10-29T02:54:30.632Z,0.00
2023-10-29T02:55:30.544Z,0.00
2023-10-29T02:56:30.475Z,0.00
2023-10-29T02:57:30.382Z,0.00
2023-10-29T02:58:30.314Z,0.00
2023-10-29T02:59:30.254Z,0.00
2023-10-29T03:00:30.146Z,0.00
2023-10-29T03:01:30.080Z,0.00
2023-10-29T03:02:30.091Z,0.00
2023-10-29T03:03:30.063Z,0.00
2023-10-29T03:04:29.836Z,0.00
2023-10-29T03:05:31.677Z,0.00
2023-10-29T03:06:29.682Z,0.00
2023-10-29T03:07:29.574Z,0.00
2023-10-29T03:08:29.524Z,0.00
2023-10-29T03:09:29.412Z,0.00
2023-10-29T03:10:29.335Z,0.00
2023-10-29T03:11:29.344Z,0.00
2023-10-29T03:12:29.171Z,0.00
2023-10-29T03:13:29.093Z,0.00
2023-10-29T03:14:29.036Z,0.00
2023-10-29T03:15:28.926Z,0.00
2023-10-29T03:16:28.845Z,0.00
2023-10-29T03:17:28.776Z,0.00
2023-10-29T03:18:28.724Z,0.00
2023-10-29T03:19:28.606Z,0.00
2023-10-29T03:20:28.544Z,0.00
2023-10-29T03:21:28.441Z,0.00
2023-10-29T03:22:28.423Z,0.00
2023-10-29T03:23:28.317Z,0.00
2023-10-29T03:24:28.197Z,0.00
2023-10-29T03:25:28.163Z,0.00
2023-10-29T03:26:28.066Z,0.00
2023-10-29T03:27:27.953Z,0.00
2023-10-29T03:28:27.876Z,0.00
2023-10-29T03:29:27.815Z,0.00
2023-10-29T03:30:27.715Z,0.00
2023-10-29T03:31:27.659Z,0.00
2023-10-29T03:32:27.631Z,0.00
2023-10-29T03:33:27.524Z,0.00
2023-10-29T03:34:27.400Z,0.00
2023-10-29T03:35:27.335Z,0.00
2023-10-29T03:36:27.227Z,0.00
2023-10-29T03:37:27.144Z,0.00
2023-10-29T03:38:27.090Z,0.00
2023-10-29T03:39:26.984Z,0.00
2023-10-29T03:40:26.901Z,0.00
2023-10-29T03:41:26.851Z,0.00
2023-10-29T03:42:26.740Z,0.00
2023-10-29T03:43:26.654Z,0.00
2023-10-29T03:44:26.602Z,0.00
2023-10-29T03:45:26.493Z,0.00
2023-10-29T03:46:26.415Z,0.00
2023-10-29T03:47:26.353Z,0.00
2023-10-29T03:48:26.341Z,0.00
2023-10-29T03:49:26.168Z,0.00
2023-10-29T03:50:26.112Z,0.00
2023-10-29T03:51:26.010Z,0.00
2023-10-29T03:52:25.935Z,0.00
2023-10-29T03:53:25.864Z,0.00
2023-10-29T03:54:25.772Z,0.00
2023-10-29T03:55:25.690Z,0.00
2023-10-29T03:56:25.668Z,0.00
2023-10-29T03:57:25.527Z,0.00
2023-10-29T03:58:25.441Z,0.00
2023-10-29T03:59:25.358Z,0.00
2023-10-29T04:00:25.278Z,0.00
2023-10-29T04:01:25.208Z,0.00
2023-10-29T04:02:25.115Z,0.00
2023-10-29T04:03:25.106Z,0.00
2023-10-29T04:04:24.985Z,0.00
2023-10-29T04:05:24.880Z,0.00
2023-10-29T04:06:24.793Z,0.00
2023-10-29T04:07:24.720Z,0.00
2023-10-29T04:08:24.630Z,0.00
2023-10-29T04:09:24.561Z,0.00
2023-10-29T04:10:24.474Z,0.00
2023-10-29T04:11:24.384Z,0.00
2023-10-29T04:12:24.301Z,0.00
2023-10-29T04:13:24.225Z,0.00
2023-10-29T04:14:24.139Z,0.00
2023-10-29T04:15:24.062Z,0.00
2023-10-29T04:16:24.007Z,0.00
2023-10-29T04:17:23.899Z,0.00
2023-10-29T04:18:23.898Z,0.00
2023-10-29T04:19:23.742Z,0.00
2023-10-29T04:20:23.670Z,0.00
2023-10-29T04:21:23.580Z,0.00
2023-10-29T04:22:23.495Z,0.00
2023-10-29T04:23:23.420Z,0.00
2023-10-29T04:24:23.335Z,0.00
2023-10-29T04:25:23.256Z,0.00
2023-10-29T04:26:23.171Z,0.00
2023-10-29T04:27:23.090Z,0.00
2023-10-29T04:28:23.005Z,0.00
2023-10-29T04:29:22.930Z,0.00
2023-10-29T04:30:22.874Z,0.00
2023-10-29T04:31:22.832Z,0.00
2023-10-29T04:32:22.679Z,0.00
2023-10-29T04:33:22.704Z,0.00
2023-10-29T04:34:22.516Z,0.00
2023-10-29T04:35:22.445Z,0.00
2023-10-29T04:36:22.354Z,0.00
2023-10-29T04:37:22.274Z,0.00
2023-10-29T04:38:22.190Z,0.00
2023-10-29T04:39:22.121Z,0.00
2023-10-29T04:40:22.037Z,0.00
2023-10-29T04:41:21.972Z,0.00
2023-10-29T04:42:21.868Z,0.00
2023-10-29T04:43:21.785Z,0.00
2023-10-29T04:44:21.707Z,0.00
2023-10-29T04:45:21.650Z,0.00
2023-10-29T04:46:21.604Z,0.00
2023-10-29T04:47:21.462Z,0.00
2023-10-29T04:48:21.482Z,0.00
2023-10-29T04:49:21.304Z,0.00
2023-10-29T04:50:21.219Z,0.00
2023-10-29T04:51:21.138Z,0.00
2023-10-29T04:52:21.062Z,0.00
2023-10-29T04:53:20.976Z,0.00
2023-10-29T04:54:20.894Z,0.00
2023-10-29T04:55:20.817Z,0.00
2023-10-29T04:56:20.729Z,0.00
2023-10-29T04:57:20.651Z,0.00
2023-10-29T04:58:20.567Z,0.00
2023-10-29T04:59:20.486Z,0.00
2023-10-29T05:00:20.405Z,0.00
2023-10-29T05:01:20.341Z,0.00
2023-10-29T05:02:20.239Z,0.00
2023-10-29T05:03:20.230Z,0.00
2023-10-29T05:04:20.103Z,0.00
2023-10-29T05:05:20.001Z,0.00
2023-10-29T05:06:19.929Z,0.00
2023-10-29T05:07:19.836Z,0.00
2023-10-29T05:08:19.763Z,0.00
2023-10-29T05:09:19.677Z,0.00
2023-10-29T05:10:19.590Z,0.00
2023-10-29T05:11:19.524Z,0.00
2023-10-29T05:12:19.429Z,0.00
2023-10-29T05:13:19.352Z,0.00
2023-10-29T05:14:19.277Z,0.00
2023-10-29T05:15:19.181Z,0.00
2023-10-29T05:16:19.156Z,0.00
2023-10-29T05:17:19.021Z,0.00
2023-10-29T05:18:19.020Z,0.00
2023-10-29T05:19:18.858Z,0.00
2023-10-29T05:20:18.786Z,0.00
2023-10-29T05:21:18.701Z,0.00
2023-10-29T05:22:18.619Z,0.00
2023-10-29T05:23:18.533Z,0.00
2023-10-29T05:24:18.453Z,0.00
2023-10-29T05:25:18.370Z,0.00
2023-10-29T05:26:18.288Z,0.00
2023-10-29T05:27:18.210Z,0.00
2023-10-29T05:28:18.125Z,0.00
2023-10-29T05:29:18.051Z,0.00
2023-10-29T05:30:17.963Z,0.00
2023-10-29T05:31:17.910Z,0.00
2023-10-29T05:32:17.797Z,0.00
2023-10-29T05:33:17.852Z,0.00
2023-10-29T05:34:17.650Z,0.00
2023-10-29T05:35:17.559Z,0.00
2023-10-29T05:36:17.486Z,0.00
2023-10-29T05:37:17.395Z,0.00
2023-10-29T05:38:17.307Z,0.00
2023-10-29T05:39:17.226Z,0.00
2023-10-29T05:40:17.144Z,0.00
2023-10-29T05:41:17.065Z,0.00
2023-10-29T05:42:16.980Z,0.00
2023-10-29T05:43:16.902Z,4.00
2023-10-29T05:44:16.822Z,0.00
2023-10-29T05:45:16.791Z,4.00
2023-10-29T05:46:16.757Z,4.00
2023-10-29T05:47:16.580Z,4.00
2023-10-29T05:48:16.524Z,4.00
2023-10-29T05:49:16.424Z,8.00
2023-10-29T05:50:16.337Z,4.00
2023-10-29T05:51:16.253Z,4.00
2023-10-29T05:52:16.181Z,8.00
2023-10-29T05:53:16.090Z,8.00
2023-10-29T05:54:16.006Z,4.00
2023-10-29T05:55:15.932Z,8.00
2023-10-29T05:56:15.844Z,8.00
2023-10-29T05:57:15.764Z,8.00
2023-10-29T05:58:15.680Z,12.00
2023-10-29T05:59:15.605Z,12.00
2023-10-29T06:00:15.525Z,12.00
2023-10-29T06:01:15.442Z,16.00
2023-10-29T06:02:15.353Z,20.00
2023-10-29T06:03:15.371Z,20.00
2023-10-29T06:04:15.298Z,24.00
2023-10-29T06:05:15.112Z,24.00
2023-10-29T06:06:15.027Z,28.00
2023-10-29T06:07:14.947Z,32.00
2023-10-29T06:08:14.866Z,28.00
2023-10-29T06:09:23.868Z,36.00
2023-10-29T06:10:15.004Z,36.00
2023-10-29T06:11:14.629Z,44.00
2023-10-29T06:12:14.540Z,44.00
2023-10-29T06:13:14.460Z,48.00
2023-10-29T06:14:14.376Z,52.00
2023-10-29T06:15:14.381Z,56.00
2023-10-29T06:16:14.212Z,60.00
2023-10-29T06:17:26.265Z,64.00
2023-10-29T06:18:14.151Z,64.00
2023-10-29T06:19:13.971Z,68.00
2023-10-29T06:20:13.886Z,76.00
2023-10-29T06:21:13.815Z,80.00
2023-10-29T06:22:13.725Z,84.00
2023-10-29T06:23:13.643Z,88.00
2023-10-29T06:24:13.597Z,88.00
2023-10-29T06:25:13.485Z,92.00
2023-10-29T06:26:13.394Z,96.00
2023-10-29T06:27:13.314Z,100.00
2023-10-29T06:28:13.240Z,100.00
2023-10-29T06:29:13.174Z,108.00
2023-10-29T06:30:13.109Z,112.00
2023-10-29T06:31:13.064Z,120.00
2023-10-29T06:32:12.903Z,124.00
2023-10-29T06:33:12.923Z,124.00
2023-10-29T06:34:12.740Z,132.00
2023-10-29T06:35:12.664Z,136.00
2023-10-29T06:36:12.589Z,144.00
2023-10-29T06:37:12.500Z,152.00
2023-10-29T06:38:12.413Z,160.00
2023-10-29T06:39:12.380Z,156.00
2023-10-29T06:40:12.250Z,164.00
2023-10-29T06:41:12.174Z,172.00
2023-10-29T06:42:12.090Z,168.00
2023-10-29T06:43:12.011Z,152.00
2023-10-29T06:44:11.927Z,120.00
2023-10-29T06:45:11.911Z,100.00
2023-10-29T06:46:11.781Z,76.00
2023-10-29T06:47:11.695Z,64.00
2023-10-29T06:48:11.685Z,60.00
2023-10-29T06:49:11.520Z,56.00
2023-10-29T06:50:11.440Z,56.00
2023-10-29T06:51:11.357Z,56.00
2023-10-29T06:52:11.271Z,56.00
2023-10-29T06:53:11.200Z,56.00
2023-10-29T06:54:11.110Z,60.00
2023-10-29T06:55:11.028Z,64.00
2023-10-29T06:56:10.947Z,68.00
2023-10-29T06:57:10.909Z,76.00
2023-10-29T06:58:10.782Z,84.00
2023-10-29T06:59:10.714Z,96.00
2023-10-29T07:00:10.651Z,108.00
2023-10-29T07:01:10.539Z,120.00
2023-10-29T07:02:10.482Z,132.00
2023-10-29T07:03:10.578Z,140.00
2023-10-29T07:04:10.443Z,144.00
2023-10-29T07:05:10.217Z,148.00
2023-10-29T07:06:10.142Z,160.00
2023-10-29T07:07:10.052Z,172.00
2023-10-29T07:08:09.970Z,192.00
2023-10-29T07:09:09.937Z,208.00
2023-10-29T07:10:09.804Z,216.00
2023-10-29T07:11:09.725Z,208.00
2023-10-29T07:12:09.671Z,196.00
2023-10-29T07:13:09.562Z,192.00
2023-10-29T07:14:09.479Z,196.00
2023-10-29T07:15:09.425Z,188.00
2023-10-29T07:16:09.347Z,196.00
2023-10-29T07:17:09.237Z,232.00
2023-10-29T07:18:09.265Z,204.00
2023-10-29T07:19:09.214Z,216.00
2023-10-29T07:20:08.996Z,268.00
2023-10-29T07:21:08.964Z,272.00
2023-10-29T07:22:08.827Z,248.00
2023-10-29T07:23:08.746Z,440.00
2023-10-29T07:24:08.698Z,248.00
2023-10-29T07:25:08.585Z,300.00
2023-10-29T07:26:08.502Z,492.00
2023-10-29T07:27:08.476Z,380.00
2023-10-29T07:28:08.338Z,336.00
2023-10-29T07:29:08.260Z,344.00
2023-10-29T07:30:08.200Z,364.00
2023-10-29T07:31:08.094Z,416.00
2023-10-29T07:32:08.017Z,392.00
2023-10-29T07:33:08.021Z,660.00
2023-10-29T07:34:07.848Z,824.00
2023-10-29T07:35:07.809Z,1000.00
2023-10-29T07:36:07.734Z,1040.00
2023-10-29T07:37:08.784Z,476.00
2023-10-29T07:38:07.521Z,460.00
2023-10-29T07:39:07.528Z,460.00
2023-10-29T07:40:07.363Z,428.00
2023-10-29T07:41:07.278Z,424.00
2023-10-29T07:42:07.239Z,432.00
2023-10-29T07:43:07.117Z,744.00
2023-10-29T07:44:07.044Z,456.00
2023-10-29T07:45:07.008Z,392.00
2023-10-29T07:46:06.999Z,328.00
2023-10-29T07:47:06.796Z,252.00
2023-10-29T07:48:06.753Z,184.00
2023-10-29T07:49:06.634Z,152.00
2023-10-29T07:50:07.130Z,132.00
2023-10-29T07:51:06.558Z,140.00
2023-10-29T07:52:06.388Z,160.00
2023-10-29T07:53:06.314Z,188.00
2023-10-29T07:54:06.288Z,212.00
2023-10-29T07:55:06.147Z,228.00
2023-10-29T07:56:06.067Z,232.00
2023-10-29T07:57:06.010Z,240.00
2023-10-29T07:58:05.903Z,244.00
2023-10-29T07:59:05.824Z,256.00
2023-10-29T08:00:05.797Z,260.00
2023-10-29T08:01:05.685Z,268.00
2023-10-29T08:02:05.581Z,284.00
2023-10-29T08:03:05.550Z,300.00
2023-10-29T08:04:05.470Z,312.00
2023-10-29T08:05:05.342Z,296.00
2023-10-29T08:06:05.324Z,272.00
2023-10-29T08:07:05.197Z,260.00
2023-10-29T08:08:05.098Z,244.00
2023-10-29T08:09:05.044Z,236.00
2023-10-29T08:10:04.933Z,232.00
2023-10-29T08:11:04.855Z,228.00
2023-10-29T08:12:04.879Z,220.00
2023-10-29T08:13:04.692Z,212.00
2023-10-29T08:14:04.612Z,208.00
2023-10-29T08:15:04.612Z,208.00
2023-10-29T08:16:04.508Z,204.00
2023-10-29T08:17:04.370Z,204.00
2023-10-29T08:18:04.367Z,192.00
2023-10-29T08:19:04.206Z,192.00
2023-10-29T08:20:04.125Z,188.00
2023-10-29T08:21:04.124Z,192.00
2023-10-29T08:22:03.965Z,200.00
2023-10-29T08:23:03.890Z,208.00
2023-10-29T08:24:03.834Z,224.00
2023-10-29T08:25:03.719Z,248.00
2023-10-29T08:26:03.642Z,280.00
2023-10-29T08:27:03.636Z,316.00
2023-10-29T08:28:03.479Z,344.00
2023-10-29T08:29:03.401Z,376.00
2023-10-29T08:30:04.357Z,416.00
2023-10-29T08:31:03.236Z,440.00
2023-10-29T08:32:03.159Z,428.00
2023-10-29T08:33:03.141Z,392.00
2023-10-29T08:34:03.005Z,348.00
2023-10-29T08:35:02.921Z,308.00
2023-10-29T08:36:02.899Z,268.00
2023-10-29T08:37:02.765Z,236.00
2023-10-29T08:38:02.685Z,216.00
2023-10-29T08:39:02.682Z,204.00
2023-10-29T08:40:02.509Z,200.00
2023-10-29T08:41:02.437Z,208.00
2023-10-29T08:42:02.405Z,236.00
2023-10-29T08:43:02.270Z,272.00
2023-10-29T08:44:02.204Z,324.00
2023-10-29T08:45:02.220Z,368.00
2023-10-29T08:46:02.168Z,392.00
2023-10-29T08:47:02.028Z,388.00
2023-10-29T08:48:01.901Z,400.00
2023-10-29T08:49:01.786Z,436.00
2023-10-29T08:50:01.713Z,464.00
2023-10-29T08:51:01.655Z,496.00
2023-10-29T08:52:01.544Z,664.00
2023-10-29T08:53:01.478Z,1060.00
2023-10-29T08:54:01.419Z,592.00
2023-10-29T08:55:01.306Z,620.00
2023-10-29T08:56:01.223Z,600.00
2023-10-29T08:57:01.162Z,680.00
2023-10-29T08:58:01.060Z,648.00
2023-10-29T08:59:00.977Z,628.00
2023-10-29T09:00:00.932Z,1248.00
2023-10-29T09:01:00.814Z,636.00
2023-10-29T09:02:00.736Z,704.00
2023-10-29T09:03:00.810Z,1460.00
2023-10-29T09:04:00.752Z,560.00
2023-10-29T09:05:00.495Z,488.00
2023-10-29T09:06:00.465Z,492.00
2023-10-29T09:07:00.333Z,560.00
2023-10-29T09:08:00.259Z,784.00
2023-10-29T09:09:00.262Z,704.00
2023-10-29T09:10:00.147Z,1448.00
2023-10-29T09:11:00.020Z,588.00
2023-10-29T09:11:59.946Z,628.00
2023-10-29T09:12:59.867Z,476.00
2023-10-29T09:13:59.775Z,832.00
2023-10-29T09:14:59.717Z,504.00
2023-10-29T09:15:59.626Z,540.00
2023-10-29T09:16:59.565Z,1376.00
2023-10-29T09:17:59.484Z,2108.00
2023-10-29T09:18:59.370Z,604.00
2023-10-29T09:19:59.289Z,1940.00
2023-10-29T09:20:59.234Z,1380.00
2023-10-29T09:21:59.126Z,2428.00
2023-10-29T09:22:59.061Z,2120.00
2023-10-29T09:23:59.009Z,752.00
2023-10-29T09:24:58.970Z,752.00
2023-10-29T09:25:58.838Z,2364.00
2023-10-29T09:26:58.764Z,584.00
2023-10-29T09:27:58.647Z,576.00
2023-10-29T09:28:58.566Z,504.00
2023-10-29T09:29:58.550Z,484.00
2023-10-29T09:30:58.408Z,444.00
2023-10-29T09:31:58.331Z,404.00
2023-10-29T09:32:58.383Z,384.00
2023-10-29T09:33:58.169Z,360.00
2023-10-29T09:34:58.090Z,344.00
2023-10-29T09:35:58.052Z,332.00
2023-10-29T09:36:57.927Z,336.00
2023-10-29T09:37:57.850Z,348.00
2023-10-29T09:38:57.776Z,368.00
2023-10-29T09:39:57.692Z,388.00
2023-10-29T09:40:57.614Z,404.00
2023-10-29T09:41:57.592Z,408.00
2023-10-29T09:42:57.451Z,428.00
2023-10-29T09:43:57.369Z,444.00
2023-10-29T09:44:57.370Z,460.00
2023-10-29T09:45:57.242Z,476.00
2023-10-29T09:46:57.128Z,488.00
2023-10-29T09:47:57.136Z,492.00
2023-10-29T09:48:56.969Z,532.00
2023-10-29T09:49:56.892Z,592.00
2023-10-29T09:50:56.822Z,640.00
2023-10-29T09:51:56.730Z,672.00
2023-10-29T09:52:56.652Z,664.00
2023-10-29T09:53:56.582Z,624.00
2023-10-29T09:54:56.529Z,588.00
2023-10-29T09:55:56.432Z,548.00
2023-10-29T09:56:56.393Z,516.00
2023-10-29T09:57:56.259Z,500.00
2023-10-29T09:58:56.173Z,488.00
2023-10-29T09:59:56.154Z,488.00
2023-10-29T10:00:56.012Z,492.00
2023-10-29T10:01:58.836Z,512.00
2023-10-29T10:02:55.990Z,564.00
2023-10-29T10:03:55.893Z,632.00
2023-10-29T10:04:55.698Z,688.00
2023-10-29T10:05:55.657Z,708.00
2023-10-29T10:06:55.537Z,704.00
2023-10-29T10:07:55.450Z,688.00
2023-10-29T10:08:55.441Z,664.00
2023-10-29T10:09:55.294Z,652.00
2023-10-29T10:10:55.214Z,672.00
2023-10-29T10:11:55.151Z,660.00
2023-10-29T10:12:55.053Z,660.00
2023-10-29T10:13:54.975Z,640.00
2023-10-29T10:14:54.915Z,628.00
2023-10-29T10:15:54.869Z,600.00
2023-10-29T10:16:54.742Z,564.00
2023-10-29T10:17:54.706Z,536.00
2023-10-29T10:18:54.636Z,520.00
2023-10-29T10:19:54.516Z,532.00
2023-10-29T10:20:54.449Z,556.00
2023-10-29T10:21:54.335Z,560.00
2023-10-29T10:22:54.256Z,536.00
2023-10-29T10:23:54.304Z,504.00
2023-10-29T10:24:54.253Z,472.00
2023-10-29T10:25:54.024Z,444.00
2023-10-29T10:26:53.958Z,428.00
2023-10-29T10:27:53.863Z,416.00
2023-10-29T10:28:53.781Z,412.00
2023-10-29T10:29:53.741Z,412.00
2023-10-29T10:30:53.626Z,412.00
2023-10-29T10:31:53.574Z,412.00
2023-10-29T10:32:53.536Z,408.00
2023-10-29T10:33:53.386Z,404.00
2023-10-29T10:34:53.351Z,396.00
2023-10-29T10:35:53.391Z,404.00
2023-10-29T10:36:53.154Z,412.00
2023-10-29T10:37:53.067Z,424.00
2023-10-29T10:38:53.022Z,428.00
2023-10-29T10:39:52.911Z,428.00
2023-10-29T10:40:52.834Z,424.00
2023-10-29T10:41:52.793Z,424.00
2023-10-29T10:42:52.669Z,432.00
2023-10-29T10:43:52.592Z,444.00
2023-10-29T10:44:52.525Z,464.00
2023-10-29T10:45:52.477Z,488.00
2023-10-29T10:46:52.377Z,516.00
2023-10-29T10:47:52.386Z,544.00
2023-10-29T10:48:52.197Z,568.00
2023-10-29T10:49:52.140Z,600.00
2023-10-29T10:50:52.104Z,620.00
2023-10-29T10:51:51.960Z,640.00
2023-10-29T10:52:51.878Z,664.00
2023-10-29T10:53:51.821Z,704.00
2023-10-29T10:54:51.721Z,728.00
2023-10-29T10:56:02.334Z,724.00
2023-10-29T10:56:51.612Z,696.00
2023-10-29T10:57:51.484Z,680.00
2023-10-29T10:58:51.402Z,664.00
2023-10-29T10:59:51.371Z,648.00
2023-10-29T11:00:51.244Z,632.00
2023-10-29T11:01:51.223Z,624.00
2023-10-29T11:02:51.267Z,628.00
2023-10-29T11:03:51.101Z,628.00
2023-10-29T11:04:51.295Z,616.00
2023-10-29T11:05:50.925Z,584.00
2023-10-29T11:06:50.812Z,564.00
2023-10-29T11:07:50.695Z,532.00
2023-10-29T11:08:50.642Z,504.00
2023-10-29T11:09:50.534Z,476.00
2023-10-29T11:10:50.456Z,448.00
2023-10-29T11:11:50.426Z,412.00
2023-10-29T11:12:50.296Z,372.00
2023-10-29T11:13:50.220Z,320.00
2023-10-29T11:14:50.250Z,280.00
2023-10-29T11:15:50.171Z,244.00
2023-10-29T11:16:50.067Z,216.00
2023-10-29T11:17:49.953Z,212.00
2023-10-29T11:18:49.823Z,228.00
2023-10-29T11:19:49.744Z,256.00
2023-10-29T11:20:49.674Z,304.00
2023-10-29T11:21:49.591Z,372.00
2023-10-29T11:22:49.506Z,480.00
2023-10-29T11:23:49.515Z,824.00
2023-10-29T11:24:49.620Z,1208.00
2023-10-29T11:25:49.280Z,1304.00
2023-10-29T11:26:49.208Z,1820.00
2023-10-29T11:27:49.123Z,1100.00
2023-10-29T11:28:49.042Z,1080.00
2023-10-29T11:29:48.965Z,1124.00
2023-10-29T11:30:48.890Z,1164.00
2023-10-29T11:31:48.814Z,1152.00
2023-10-29T11:32:48.749Z,936.00
2023-10-29T11:33:48.643Z,880.00
2023-10-29T11:34:48.725Z,792.00
2023-10-29T11:35:48.666Z,732.00
2023-10-29T11:36:48.408Z,676.00
2023-10-29T11:37:48.334Z,616.00
2023-10-29T11:38:48.268Z,576.00
2023-10-29T11:39:48.174Z,556.00
2023-10-29T11:40:48.093Z,536.00
2023-10-29T11:41:48.050Z,528.00
2023-10-29T11:42:47.931Z,516.00
2023-10-29T11:43:47.855Z,508.00
2023-10-29T11:44:47.947Z,500.00
2023-10-29T11:45:47.706Z,492.00
2023-10-29T11:46:47.617Z,492.00
2023-10-29T11:47:47.572Z,488.00
2023-10-29T11:48:47.512Z,472.00
2023-10-29T11:49:47.383Z,440.00
2023-10-29T11:50:47.337Z,404.00
2023-10-29T11:51:47.225Z,372.00
2023-10-29T11:52:47.164Z,344.00
2023-10-29T11:53:47.124Z,320.00
2023-10-29T11:54:47.173Z,308.00
2023-10-29T11:55:46.914Z,296.00
2023-10-29T11:56:46.834Z,288.00
2023-10-29T11:57:46.753Z,268.00
2023-10-29T11:58:46.683Z,252.00
2023-10-29T11:59:46.604Z,240.00
2023-10-29T12:00:46.516Z,236.00
2023-10-29T12:01:46.437Z,236.00
2023-10-29T12:02:46.412Z,244.00
2023-10-29T12:03:46.561Z,264.00
2023-10-29T12:04:46.323Z,284.00
2023-10-29T12:05:46.145Z,296.00
2023-10-29T12:06:46.073Z,308.00
2023-10-29T12:07:45.968Z,316.00
2023-10-29T12:08:45.894Z,316.00
2023-10-29T12:09:45.912Z,312.00
2023-10-29T12:10:45.728Z,300.00
2023-10-29T12:11:45.670Z,288.00
2023-10-29T12:12:45.571Z,272.00
2023-10-29T12:13:45.525Z,260.00
2023-10-29T12:14:45.483Z,252.00
2023-10-29T12:15:45.343Z,252.00
2023-10-29T12:16:45.287Z,252.00
2023-10-29T12:17:45.228Z,268.00
2023-10-29T12:18:45.097Z,280.00
2023-10-29T12:19:45.066Z,292.00
2023-10-29T12:20:44.948Z,300.00
2023-10-29T12:21:44.861Z,308.00
2023-10-29T12:22:44.788Z,316.00
2023-10-29T12:23:44.808Z,328.00
2023-10-29T12:24:44.673Z,344.00
2023-10-29T12:25:44.549Z,352.00
2023-10-29T12:26:44.497Z,356.00
2023-10-29T12:27:44.390Z,348.00
2023-10-29T12:28:44.314Z,336.00
2023-10-29T12:29:44.266Z,320.00
2023-10-29T12:30:44.271Z,304.00
2023-10-29T12:31:44.075Z,292.00
2023-10-29T12:32:44.073Z,288.00
2023-10-29T12:33:43.936Z,300.00
2023-10-29T12:34:43.840Z,328.00
2023-10-29T12:35:43.791Z,360.00
2023-10-29T12:36:43.688Z,388.00
2023-10-29T12:37:43.605Z,404.00
2023-10-29T12:38:43.567Z,416.00
2023-10-29T12:39:43.450Z,416.00
2023-10-29T12:40:43.370Z,424.00
2023-10-29T12:41:43.299Z,428.00
2023-10-29T12:42:43.214Z,440.00
2023-10-29T12:43:43.135Z,452.00
2023-10-29T12:44:43.114Z,488.00
2023-10-29T12:45:42.973Z,544.00
2023-10-29T12:46:42.967Z,540.00
2023-10-29T12:47:42.891Z,524.00
2023-10-29T12:48:42.783Z,560.00
2023-10-29T12:49:42.661Z,544.00
2023-10-29T12:50:42.592Z,556.00
2023-10-29T12:51:42.758Z,516.00